Time;durP1;ratioP1;P1;durP2;ratioP2;P2;SDS_P1;SDS_P2;PMS_P1;PMS_P2;Temp;Humidity;BMP_temperature;BMP_pressure;BME280_temperature;BME280_humidity;BME280_pressure;Samples;Min_cycle;Max_cycle;Signal;HPM_P1;HPM_P2
2022/11/16 00:16:38;;;;;;;40.63;18.10;;;5.50;99.90;;;;;;4628418;30;20274;-86
2022/11/16 00:47:03;;;;;;;32.53;14.53;;;5.50;99.90;;;;;;4815855;29;20325;-84
2022/11/16 01:53:04;;;;;;;28.10;14.60;;;5.50;99.90;;;;;;4986356;28;20330;-86
2022/11/16 02:18:30;;;;;;;18.43;9.77;;;5.50;99.90;;;;;;4883913;29;20214;-85
2022/11/16 02:43:12;;;;;;;23.07;13.40;;;5.40;99.90;;;;;;4829334;29;20505;-83
2022/11/16 03:03:51;;;;;;;25.50;12.53;;;5.60;99.90;;;;;;4702101;29;20544;-84
2022/11/16 03:29:30;;;;;;;24.23;13.40;;;5.50;99.90;;;;;;4679676;29;20626;-84
2022/11/16 03:59:15;;;;;;;28.60;14.77;;;5.60;99.90;;;;;;4634422;30;20213;-86
2022/11/16 04:25:01;;;;;;;31.27;16.13;;;5.50;99.90;;;;;;4710041;30;20713;-85
2022/11/16 04:49:56;;;;;;;29.60;15.40;;;5.60;99.90;;;;;;4617511;29;20390;-84
2022/11/16 05:10:37;;;;;;;34.60;17.90;;;5.60;99.90;;;;;;4635677;30;20327;-86
2022/11/16 05:31:09;;;;;;;36.50;17.00;;;5.60;99.90;;;;;;4622694;30;21016;-85
2022/11/16 06:01:15;;;;;;;41.93;18.60;;;5.80;99.90;;;;;;4702558;29;20520;-85
2022/11/16 06:21:31;;;;;;;38.90;18.90;;;5.60;99.90;;;;;;4759110;29;20456;-87
2022/11/16 06:47:09;;;;;;;31.13;15.73;;;5.70;99.90;;;;;;4907163;28;20230;-85
2022/11/16 07:17:43;;;;;;;28.40;14.97;;;5.80;99.90;;;;;;4918890;28;20292;-88
2022/11/16 07:42:44;;;;;;;30.40;14.77;;;5.80;99.90;;;;;;5085772;23;21724;-89
2022/11/16 08:03:11;;;;;;;37.77;14.93;;;5.70;99.90;;;;;;4899911;29;20200;-85
2022/11/16 08:28:05;;;;;;;36.70;17.67;;;5.70;99.90;;;;;;4746327;29;21286;-86
2022/11/16 08:53:39;;;;;;;25.53;13.83;;;5.90;99.90;;;;;;4762900;29;20296;-85
2022/11/16 09:39:47;;;;;;;17.50;9.80;;;6.00;99.90;;;;;;4907477;29;20201;-87
2022/11/16 09:44:13;;;;;;;17.43;9.70;;;6.10;99.90;;;;;;4915012;29;20242;-87
2022/11/16 10:30:21;;;;;;;10.30;6.77;;;6.30;99.90;;;;;;4772108;29;21769;-85
2022/11/16 11:00:47;;;;;;;10.27;6.07;;;6.50;99.90;;;;;;4755538;29;20281;-82
2022/11/16 11:31:07;;;;;;;8.33;5.87;;;6.50;99.90;;;;;;4781025;29;20784;-86
2022/11/16 12:01:37;;;;;;;3.53;3.13;;;6.50;99.50;;;;;;4750451;29;20380;-84
2022/11/16 15:05:40;;;;;;;5.77;5.03;;;3.50;99.90;;;;;;4819433;29;20715;-85
2022/11/16 15:41:15;;;;;;;5.33;4.43;;;3.50;99.90;;;;;;4692226;30;20279;-89
2022/11/16 16:11:30;;;;;;;4.07;3.53;;;3.60;99.90;;;;;;4615783;30;20390;-87
2022/11/16 16:32:01;;;;;;;4.97;4.23;;;3.60;99.90;;;;;;4706339;30;20314;-84
2022/11/16 16:57:06;;;;;;;5.73;4.57;;;3.70;99.90;;;;;;4631786;30;20230;-84
2022/11/16 17:22:20;;;;;;;4.33;3.40;;;3.80;99.90;;;;;;4640047;30;20398;-87
2022/11/16 18:03:16;;;;;;;4.93;3.60;;;3.70;99.90;;;;;;4742857;29;20359;-85
2022/11/16 18:38:49;;;;;;;4.30;3.87;;;3.70;99.90;;;;;;4733981;29;20213;-86
2022/11/16 19:08:58;;;;;;;5.80;4.53;;;3.60;99.90;;;;;;4687049;30;20563;-84
2022/11/16 20:04:53;;;;;;;9.43;6.67;;;3.70;99.90;;;;;;4774834;29;20581;-83
2022/11/16 20:44:48;;;;;;;11.13;7.50;;;3.80;99.90;;;;;;4809209;29;20694;-83
2022/11/16 21:15:59;;;;;;;14.30;10.60;;;3.80;99.50;;;;;;4817318;29;20251;-84
2022/11/16 21:20:19;;;;;;;14.10;9.60;;;3.90;99.40;;;;;;4751588;29;20812;-84
2022/11/16 21:45:42;;;;;;;11.70;9.03;;;3.80;98.40;;;;;;4617904;30;20221;-83
2022/11/16 22:52:12;;;;;;;5.13;4.27;;;3.90;93.80;;;;;;4686563;30;20555;-83
2022/11/16 23:17:21;;;;;;;5.90;4.73;;;3.80;93.20;;;;;;4766996;29;20239;-84
2022/11/16 23:47:45;;;;;;;4.33;2.97;;;3.80;92.70;;;;;;4609066;30;20317;-83
